sensor_id;sensor_type;location;lat;lon;timestamp;temperature;humidity
9847;DHT22;68671;50.084;8.794;2023-05-18T00:00:14;11.10;90.50
9847;DHT22;68671;50.084;8.794;2023-05-18T00:02:41;11.10;90.70
9847;DHT22;68671;50.084;8.794;2023-05-18T00:05:08;11.20;90.80
9847;DHT22;68671;50.084;8.794;2023-05-18T00:07:36;11.20;90.90
9847;DHT22;68671;50.084;8.794;2023-05-18T00:10:06;11.20;91.00
9847;DHT22;68671;50.084;8.794;2023-05-18T00:12:33;11.20;91.10
9847;DHT22;68671;50.084;8.794;2023-05-18T00:15:00;11.20;91.20
9847;DHT22;68671;50.084;8.794;2023-05-18T00:17:27;11.20;91.20
9847;DHT22;68671;50.084;8.794;2023-05-18T00:19:56;11.20;91.20
9847;DHT22;68671;50.084;8.794;2023-05-18T00:22:23;11.20;91.30
9847;DHT22;68671;50.084;8.794;2023-05-18T00:24:51;11.20;91.40
9847;DHT22;68671;50.084;8.794;2023-05-18T00:27:19;11.20;91.60
9847;DHT22;68671;50.084;8.794;2023-05-18T00:29:46;11.20;91.60
9847;DHT22;68671;50.084;8.794;2023-05-18T00:32:13;11.20;91.70
9847;DHT22;68671;50.084;8.794;2023-05-18T00:34:40;11.10;91.70
9847;DHT22;68671;50.084;8.794;2023-05-18T00:37:07;11.10;91.90
9847;DHT22;68671;50.084;8.794;2023-05-18T00:39:34;11.10;92.00
9847;DHT22;68671;50.084;8.794;2023-05-18T00:42:01;11.20;92.10
9847;DHT22;68671;50.084;8.794;2023-05-18T00:44:29;11.20;92.10
9847;DHT22;68671;50.084;8.794;2023-05-18T00:46:56;11.20;92.00
9847;DHT22;68671;50.084;8.794;2023-05-18T00:49:24;11.10;92.10
9847;DHT22;68671;50.084;8.794;2023-05-18T00:51:52;11.10;92.30
9847;DHT22;68671;50.084;8.794;2023-05-18T00:54:19;11.10;92.30
9847;DHT22;68671;50.084;8.794;2023-05-18T00:56:46;11.10;92.80
9847;DHT22;68671;50.084;8.794;2023-05-18T00:59:13;11.00;92.60
9847;DHT22;68671;50.084;8.794;2023-05-18T01:01:42;11.10;92.70
9847;DHT22;68671;50.084;8.794;2023-05-18T01:04:11;11.00;92.80
9847;DHT22;68671;50.084;8.794;2023-05-18T01:06:39;11.00;92.90
9847;DHT22;68671;50.084;8.794;2023-05-18T01:09:08;11.00;92.90
9847;DHT22;68671;50.084;8.794;2023-05-18T01:11:58;11.00;93.10
9847;DHT22;68671;50.084;8.794;2023-05-18T01:14:32;10.90;93.20
9847;DHT22;68671;50.084;8.794;2023-05-18T01:17:08;10.90;93.40
9847;DHT22;68671;50.084;8.794;2023-05-18T01:19:58;10.80;93.40
9847;DHT22;68671;50.084;8.794;2023-05-18T01:22:36;10.70;93.60
9847;DHT22;68671;50.084;8.794;2023-05-18T01:25:15;10.70;93.90
9847;DHT22;68671;50.084;8.794;2023-05-18T01:27:45;10.70;94.10
9847;DHT22;68671;50.084;8.794;2023-05-18T01:30:14;10.70;94.20
9847;DHT22;68671;50.084;8.794;2023-05-18T01:32:44;10.80;94.30
9847;DHT22;68671;50.084;8.794;2023-05-18T01:35:11;10.80;94.30
9847;DHT22;68671;50.084;8.794;2023-05-18T01:37:38;10.80;94.40
9847;DHT22;68671;50.084;8.794;2023-05-18T01:40:07;10.80;94.50
9847;DHT22;68671;50.084;8.794;2023-05-18T01:42:41;10.80;94.50
9847;DHT22;68671;50.084;8.794;2023-05-18T01:45:16;10.80;94.60
9847;DHT22;68671;50.084;8.794;2023-05-18T01:47:47;10.80;94.60
9847;DHT22;68671;50.084;8.794;2023-05-18T01:50:17;10.80;94.80
9847;DHT22;68671;50.084;8.794;2023-05-18T01:52:57;10.80;94.90
9847;DHT22;68671;50.084;8.794;2023-05-18T01:55:28;10.80;94.90
9847;DHT22;68671;50.084;8.794;2023-05-18T01:57:57;10.80;95.00
9847;DHT22;68671;50.084;8.794;2023-05-18T02:00:27;10.70;94.90
9847;DHT22;68671;50.084;8.794;2023-05-18T02:02:54;10.70;95.00
9847;DHT22;68671;50.084;8.794;2023-05-18T02:05:21;10.60;95.10
9847;DHT22;68671;50.084;8.794;2023-05-18T02:07:48;10.60;95.40
9847;DHT22;68671;50.084;8.794;2023-05-18T02:10:15;10.50;95.60
9847;DHT22;68671;50.084;8.794;2023-05-18T02:12:42;10.50;95.70
9847;DHT22;68671;50.084;8.794;2023-05-18T02:15:09;10.50;95.80
9847;DHT22;68671;50.084;8.794;2023-05-18T02:17:38;10.40;96.00
9847;DHT22;68671;50.084;8.794;2023-05-18T02:20:06;10.50;96.20
9847;DHT22;68671;50.084;8.794;2023-05-18T02:22:33;10.40;96.40
9847;DHT22;68671;50.084;8.794;2023-05-18T02:25:00;10.40;96.40
9847;DHT22;68671;50.084;8.794;2023-05-18T02:27:27;10.40;96.60
9847;DHT22;68671;50.084;8.794;2023-05-18T02:29:54;10.40;96.80
9847;DHT22;68671;50.084;8.794;2023-05-18T02:32:22;10.40;97.00
9847;DHT22;68671;50.084;8.794;2023-05-18T02:34:52;10.40;97.10
9847;DHT22;68671;50.084;8.794;2023-05-18T02:37:19;10.40;97.10
9847;DHT22;68671;50.084;8.794;2023-05-18T02:39:47;10.30;97.50
9847;DHT22;68671;50.084;8.794;2023-05-18T02:42:14;10.30;97.30
9847;DHT22;68671;50.084;8.794;2023-05-18T02:44:41;10.30;97.50
9847;DHT22;68671;50.084;8.794;2023-05-18T02:47:08;10.30;97.50
9847;DHT22;68671;50.084;8.794;2023-05-18T02:49:35;10.20;97.60
9847;DHT22;68671;50.084;8.794;2023-05-18T02:52:04;10.20;97.80
9847;DHT22;68671;50.084;8.794;2023-05-18T02:54:30;10.20;98.00
9847;DHT22;68671;50.084;8.794;2023-05-18T02:56:57;10.10;98.20
9847;DHT22;68671;50.084;8.794;2023-05-18T02:59:24;10.10;98.80
9847;DHT22;68671;50.084;8.794;2023-05-18T03:01:51;10.10;98.50
9847;DHT22;68671;50.084;8.794;2023-05-18T03:04:18;10.10;98.70
9847;DHT22;68671;50.084;8.794;2023-05-18T03:06:46;10.00;98.90
9847;DHT22;68671;50.084;8.794;2023-05-18T03:09:18;10.00;99.00
9847;DHT22;68671;50.084;8.794;2023-05-18T03:11:45;10.00;99.20
9847;DHT22;68671;50.084;8.794;2023-05-18T03:14:15;9.90;99.80
9847;DHT22;68671;50.084;8.794;2023-05-18T03:16:42;9.90;99.90
9847;DHT22;68671;50.084;8.794;2023-05-18T03:19:09;9.90;99.90
9847;DHT22;68671;50.084;8.794;2023-05-18T03:21:38;9.90;99.90
9847;DHT22;68671;50.084;8.794;2023-05-18T03:24:06;9.90;99.90
9847;DHT22;68671;50.084;8.794;2023-05-18T03:26:34;9.80;99.90
9847;DHT22;68671;50.084;8.794;2023-05-18T03:29:03;9.80;99.90
9847;DHT22;68671;50.084;8.794;2023-05-18T03:31:30;9.70;99.90
9847;DHT22;68671;50.084;8.794;2023-05-18T03:33:56;9.70;99.90
9847;DHT22;68671;50.084;8.794;2023-05-18T03:36:23;9.70;99.90
9847;DHT22;68671;50.084;8.794;2023-05-18T03:38:52;9.70;99.90
9847;DHT22;68671;50.084;8.794;2023-05-18T03:41:19;9.70;99.90
9847;DHT22;68671;50.084;8.794;2023-05-18T03:43:48;9.60;99.90
9847;DHT22;68671;50.084;8.794;2023-05-18T03:46:15;9.60;99.90
9847;DHT22;68671;50.084;8.794;2023-05-18T03:48:42;9.60;99.90
9847;DHT22;68671;50.084;8.794;2023-05-18T03:51:09;9.60;99.90
9847;DHT22;68671;50.084;8.794;2023-05-18T03:53:36;9.50;99.90
9847;DHT22;68671;50.084;8.794;2023-05-18T03:56:04;9.40;99.90
9847;DHT22;68671;50.084;8.794;2023-05-18T03:58:31;9.40;99.90
9847;DHT22;68671;50.084;8.794;2023-05-18T04:01:00;9.40;99.90
9847;DHT22;68671;50.084;8.794;2023-05-18T04:03:27;9.40;99.90
9847;DHT22;68671;50.084;8.794;2023-05-18T04:05:54;9.40;99.90
9847;DHT22;68671;50.084;8.794;2023-05-18T04:08:21;9.40;99.90
9847;DHT22;68671;50.084;8.794;2023-05-18T04:10:50;9.40;99.90
9847;DHT22;68671;50.084;8.794;2023-05-18T04:13:17;9.50;99.90
9847;DHT22;68671;50.084;8.794;2023-05-18T04:15:44;9.50;99.90
9847;DHT22;68671;50.084;8.794;2023-05-18T04:18:13;9.60;99.90
9847;DHT22;68671;50.084;8.794;2023-05-18T04:20:40;9.70;99.90
9847;DHT22;68671;50.084;8.794;2023-05-18T04:23:10;9.80;99.90
9847;DHT22;68671;50.084;8.794;2023-05-18T04:25:37;9.90;99.90
9847;DHT22;68671;50.084;8.794;2023-05-18T04:28:06;9.90;99.90
9847;DHT22;68671;50.084;8.794;2023-05-18T04:30:34;10.00;99.90
9847;DHT22;68671;50.084;8.794;2023-05-18T04:33:02;10.00;99.90
9847;DHT22;68671;50.084;8.794;2023-05-18T04:35:33;10.10;99.90
9847;DHT22;68671;50.084;8.794;2023-05-18T04:38:00;10.10;99.90
9847;DHT22;68671;50.084;8.794;2023-05-18T04:40:29;10.10;99.90
9847;DHT22;68671;50.084;8.794;2023-05-18T04:42:58;10.10;99.90
9847;DHT22;68671;50.084;8.794;2023-05-18T04:45:25;10.30;99.90
9847;DHT22;68671;50.084;8.794;2023-05-18T04:47:55;10.50;99.90
9847;DHT22;68671;50.084;8.794;2023-05-18T04:50:23;10.80;99.90
9847;DHT22;68671;50.084;8.794;2023-05-18T04:52:52;11.10;99.90
9847;DHT22;68671;50.084;8.794;2023-05-18T04:55:22;11.50;99.90
9847;DHT22;68671;50.084;8.794;2023-05-18T04:57:52;11.90;99.90
9847;DHT22;68671;50.084;8.794;2023-05-18T05:00:21;12.30;99.90
9847;DHT22;68671;50.084;8.794;2023-05-18T05:02:48;12.70;99.90
9847;DHT22;68671;50.084;8.794;2023-05-18T05:05:15;13.00;99.90
9847;DHT22;68671;50.084;8.794;2023-05-18T05:07:43;13.30;99.90
9847;DHT22;68671;50.084;8.794;2023-05-18T05:10:11;13.70;99.90
9847;DHT22;68671;50.084;8.794;2023-05-18T05:12:39;14.10;99.90
9847;DHT22;68671;50.084;8.794;2023-05-18T05:15:08;14.50;99.90
9847;DHT22;68671;50.084;8.794;2023-05-18T05:17:35;14.80;99.40
9847;DHT22;68671;50.084;8.794;2023-05-18T05:20:03;15.10;98.50
9847;DHT22;68671;50.084;8.794;2023-05-18T05:22:30;15.40;97.60
9847;DHT22;68671;50.084;8.794;2023-05-18T05:24:57;15.60;96.10
9847;DHT22;68671;50.084;8.794;2023-05-18T05:27:25;15.80;95.60
9847;DHT22;68671;50.084;8.794;2023-05-18T05:29:52;16.10;95.10
9847;DHT22;68671;50.084;8.794;2023-05-18T05:32:19;16.40;94.40
9847;DHT22;68671;50.084;8.794;2023-05-18T05:34:46;16.70;93.90
9847;DHT22;68671;50.084;8.794;2023-05-18T05:37:15;17.00;93.30
9847;DHT22;68671;50.084;8.794;2023-05-18T05:39:41;17.30;92.10
9847;DHT22;68671;50.084;8.794;2023-05-18T05:42:08;17.50;91.60
9847;DHT22;68671;50.084;8.794;2023-05-18T05:44:37;17.70;90.90
9847;DHT22;68671;50.084;8.794;2023-05-18T05:47:05;17.90;90.80
9847;DHT22;68671;50.084;8.794;2023-05-18T05:49:33;18.10;90.50
9847;DHT22;68671;50.084;8.794;2023-05-18T05:52:00;18.30;89.20
9847;DHT22;68671;50.084;8.794;2023-05-18T05:54:27;18.40;87.50
9847;DHT22;68671;50.084;8.794;2023-05-18T05:56:54;18.50;87.60
9847;DHT22;68671;50.084;8.794;2023-05-18T05:59:21;18.70;85.10
9847;DHT22;68671;50.084;8.794;2023-05-18T06:01:49;18.80;85.00
9847;DHT22;68671;50.084;8.794;2023-05-18T06:04:16;18.90;84.00
9847;DHT22;68671;50.084;8.794;2023-05-18T06:06:43;19.10;82.60
9847;DHT22;68671;50.084;8.794;2023-05-18T06:09:10;19.20;82.40
9847;DHT22;68671;50.084;8.794;2023-05-18T06:11:37;19.50;82.00
9847;DHT22;68671;50.084;8.794;2023-05-18T06:14:04;19.70;82.10
9847;DHT22;68671;50.084;8.794;2023-05-18T06:16:31;19.90;81.70
9847;DHT22;68671;50.084;8.794;2023-05-18T06:19:15;20.10;80.30
9847;DHT22;68671;50.084;8.794;2023-05-18T06:21:48;20.30;78.60
9847;DHT22;68671;50.084;8.794;2023-05-18T06:24:18;20.40;78.00
9847;DHT22;68671;50.084;8.794;2023-05-18T06:26:45;20.70;77.40
9847;DHT22;68671;50.084;8.794;2023-05-18T06:29:12;20.90;76.90
9847;DHT22;68671;50.084;8.794;2023-05-18T06:31:39;21.20;76.70
9847;DHT22;68671;50.084;8.794;2023-05-18T06:34:07;21.60;75.30
9847;DHT22;68671;50.084;8.794;2023-05-18T06:36:34;21.90;73.80
9847;DHT22;68671;50.084;8.794;2023-05-18T06:39:02;22.10;72.30
9847;DHT22;68671;50.084;8.794;2023-05-18T06:41:30;22.40;71.90
9847;DHT22;68671;50.084;8.794;2023-05-18T06:43:57;22.60;71.10
9847;DHT22;68671;50.084;8.794;2023-05-18T06:46:26;22.90;69.00
9847;DHT22;68671;50.084;8.794;2023-05-18T06:48:53;23.10;67.30
9847;DHT22;68671;50.084;8.794;2023-05-18T06:51:21;23.20;65.40
9847;DHT22;68671;50.084;8.794;2023-05-18T06:53:48;23.30;65.10
9847;DHT22;68671;50.084;8.794;2023-05-18T06:56:16;23.30;64.30
9847;DHT22;68671;50.084;8.794;2023-05-18T06:58:43;23.40;64.40
9847;DHT22;68671;50.084;8.794;2023-05-18T07:01:10;23.50;63.20
9847;DHT22;68671;50.084;8.794;2023-05-18T07:03:38;23.50;62.30
9847;DHT22;68671;50.084;8.794;2023-05-18T07:06:05;23.60;61.40
9847;DHT22;68671;50.084;8.794;2023-05-18T07:08:34;23.60;60.90
9847;DHT22;68671;50.084;8.794;2023-05-18T07:11:01;23.40;59.90
9847;DHT22;68671;50.084;8.794;2023-05-18T07:13:29;23.40;59.90
9847;DHT22;68671;50.084;8.794;2023-05-18T07:15:56;23.40;61.30
9847;DHT22;68671;50.084;8.794;2023-05-18T07:18:23;23.40;59.70
9847;DHT22;68671;50.084;8.794;2023-05-18T07:20:51;23.50;59.50
9847;DHT22;68671;50.084;8.794;2023-05-18T07:23:18;23.50;59.40
9847;DHT22;68671;50.084;8.794;2023-05-18T07:25:47;23.70;59.20
9847;DHT22;68671;50.084;8.794;2023-05-18T07:28:14;23.80;58.10
9847;DHT22;68671;50.084;8.794;2023-05-18T07:30:41;23.90;57.80
9847;DHT22;68671;50.084;8.794;2023-05-18T07:33:08;23.80;57.00
9847;DHT22;68671;50.084;8.794;2023-05-18T07:35:35;23.90;57.70
9847;DHT22;68671;50.084;8.794;2023-05-18T07:38:02;24.10;57.70
9847;DHT22;68671;50.084;8.794;2023-05-18T07:40:29;24.40;58.20
9847;DHT22;68671;50.084;8.794;2023-05-18T07:42:57;24.80;57.90
9847;DHT22;68671;50.084;8.794;2023-05-18T07:45:24;25.20;56.40
9847;DHT22;68671;50.084;8.794;2023-05-18T07:47:51;25.30;54.90
9847;DHT22;68671;50.084;8.794;2023-05-18T07:50:18;25.40;54.60
9847;DHT22;68671;50.084;8.794;2023-05-18T07:52:45;25.40;54.10
9847;DHT22;68671;50.084;8.794;2023-05-18T07:55:13;25.40;54.30
9847;DHT22;68671;50.084;8.794;2023-05-18T07:57:41;25.50;53.90
9847;DHT22;68671;50.084;8.794;2023-05-18T08:00:10;25.40;53.30
9847;DHT22;68671;50.084;8.794;2023-05-18T08:02:43;25.60;53.70
9847;DHT22;68671;50.084;8.794;2023-05-18T08:05:11;25.90;53.80
9847;DHT22;68671;50.084;8.794;2023-05-18T08:07:38;26.10;53.20
9847;DHT22;68671;50.084;8.794;2023-05-18T08:10:05;26.20;52.20
9847;DHT22;68671;50.084;8.794;2023-05-18T08:12:32;26.30;52.00
9847;DHT22;68671;50.084;8.794;2023-05-18T08:14:59;26.50;51.00
9847;DHT22;68671;50.084;8.794;2023-05-18T08:17:28;26.60;50.80
9847;DHT22;68671;50.084;8.794;2023-05-18T08:19:56;26.50;50.50
9847;DHT22;68671;50.084;8.794;2023-05-18T08:22:23;26.40;50.70
9847;DHT22;68671;50.084;8.794;2023-05-18T08:24:56;26.40;50.40
9847;DHT22;68671;50.084;8.794;2023-05-18T08:27:25;26.10;49.10
9847;DHT22;68671;50.084;8.794;2023-05-18T08:29:52;25.60;47.70
9847;DHT22;68671;50.084;8.794;2023-05-18T08:32:19;24.80;46.30
9847;DHT22;68671;50.084;8.794;2023-05-18T08:34:47;23.90;46.00
9847;DHT22;68671;50.084;8.794;2023-05-18T08:37:15;22.80;46.60
9847;DHT22;68671;50.084;8.794;2023-05-18T08:39:42;21.80;46.70
9847;DHT22;68671;50.084;8.794;2023-05-18T08:42:15;21.00;48.30
9847;DHT22;68671;50.084;8.794;2023-05-18T08:44:48;20.40;49.50
9847;DHT22;68671;50.084;8.794;2023-05-18T08:47:16;19.90;49.90
9847;DHT22;68671;50.084;8.794;2023-05-18T08:49:45;19.30;50.50
9847;DHT22;68671;50.084;8.794;2023-05-18T08:52:17;18.90;51.40
9847;DHT22;68671;50.084;8.794;2023-05-18T08:54:49;18.50;52.10
9847;DHT22;68671;50.084;8.794;2023-05-18T08:57:19;18.20;52.60
9847;DHT22;68671;50.084;8.794;2023-05-18T08:59:48;17.80;53.20
9847;DHT22;68671;50.084;8.794;2023-05-18T09:02:17;17.60;54.30
9847;DHT22;68671;50.084;8.794;2023-05-18T09:04:45;17.50;55.20
9847;DHT22;68671;50.084;8.794;2023-05-18T09:07:13;17.40;55.90
9847;DHT22;68671;50.084;8.794;2023-05-18T09:09:43;17.20;56.10
9847;DHT22;68671;50.084;8.794;2023-05-18T09:12:12;17.10;56.50
9847;DHT22;68671;50.084;8.794;2023-05-18T09:14:41;17.10;56.50
9847;DHT22;68671;50.084;8.794;2023-05-18T09:17:08;17.00;57.60
9847;DHT22;68671;50.084;8.794;2023-05-18T09:19:36;17.00;57.50
9847;DHT22;68671;50.084;8.794;2023-05-18T09:22:03;17.00;57.70
9847;DHT22;68671;50.084;8.794;2023-05-18T09:24:32;17.00;58.00
9847;DHT22;68671;50.084;8.794;2023-05-18T09:27:00;16.90;58.20
9847;DHT22;68671;50.084;8.794;2023-05-18T09:29:27;16.80;58.40
9847;DHT22;68671;50.084;8.794;2023-05-18T09:31:54;16.60;58.80
9847;DHT22;68671;50.084;8.794;2023-05-18T09:34:21;16.60;59.30
9847;DHT22;68671;50.084;8.794;2023-05-18T09:36:50;16.70;59.50
9847;DHT22;68671;50.084;8.794;2023-05-18T09:39:18;16.60;59.40
9847;DHT22;68671;50.084;8.794;2023-05-18T09:41:45;16.60;59.60
9847;DHT22;68671;50.084;8.794;2023-05-18T09:44:13;16.70;60.30
9847;DHT22;68671;50.084;8.794;2023-05-18T09:46:41;16.60;60.40
9847;DHT22;68671;50.084;8.794;2023-05-18T09:49:08;16.60;60.60
9847;DHT22;68671;50.084;8.794;2023-05-18T09:51:37;16.60;61.00
9847;DHT22;68671;50.084;8.794;2023-05-18T09:54:06;16.50;60.60
9847;DHT22;68671;50.084;8.794;2023-05-18T09:56:37;16.50;61.40
9847;DHT22;68671;50.084;8.794;2023-05-18T09:59:07;16.40;61.50
9847;DHT22;68671;50.084;8.794;2023-05-18T10:01:37;16.40;62.10
9847;DHT22;68671;50.084;8.794;2023-05-18T10:04:20;16.40;62.30
9847;DHT22;68671;50.084;8.794;2023-05-18T10:06:48;16.50;62.30
9847;DHT22;68671;50.084;8.794;2023-05-18T10:09:15;16.60;62.40
9847;DHT22;68671;50.084;8.794;2023-05-18T10:11:42;16.60;62.20
9847;DHT22;68671;50.084;8.794;2023-05-18T10:14:10;16.70;62.60
9847;DHT22;68671;50.084;8.794;2023-05-18T10:16:39;16.70;62.30
9847;DHT22;68671;50.084;8.794;2023-05-18T10:19:07;16.70;62.80
9847;DHT22;68671;50.084;8.794;2023-05-18T10:21:37;16.70;62.70
9847;DHT22;68671;50.084;8.794;2023-05-18T10:24:05;16.70;62.70
9847;DHT22;68671;50.084;8.794;2023-05-18T10:26:36;16.70;63.30
9847;DHT22;68671;50.084;8.794;2023-05-18T10:29:08;16.70;64.40
9847;DHT22;68671;50.084;8.794;2023-05-18T10:31:40;16.70;63.60
9847;DHT22;68671;50.084;8.794;2023-05-18T10:34:09;16.70;63.70
9847;DHT22;68671;50.084;8.794;2023-05-18T10:36:36;16.70;63.50
9847;DHT22;68671;50.084;8.794;2023-05-18T10:39:04;16.60;63.80
9847;DHT22;68671;50.084;8.794;2023-05-18T10:41:33;16.70;64.30
9847;DHT22;68671;50.084;8.794;2023-05-18T10:44:01;16.70;64.20
9847;DHT22;68671;50.084;8.794;2023-05-18T10:46:29;16.70;64.20
9847;DHT22;68671;50.084;8.794;2023-05-18T10:49:00;16.70;63.90
9847;DHT22;68671;50.084;8.794;2023-05-18T10:51:29;16.70;64.50
9847;DHT22;68671;50.084;8.794;2023-05-18T10:54:09;16.80;64.70
9847;DHT22;68671;50.084;8.794;2023-05-18T10:56:37;16.70;64.00
9847;DHT22;68671;50.084;8.794;2023-05-18T10:59:08;16.80;64.70
9847;DHT22;68671;50.084;8.794;2023-05-18T11:01:38;16.80;65.10
9847;DHT22;68671;50.084;8.794;2023-05-18T11:04:07;16.70;64.90
9847;DHT22;68671;50.084;8.794;2023-05-18T11:06:34;16.70;64.80
9847;DHT22;68671;50.084;8.794;2023-05-18T11:09:02;16.70;65.00
9847;DHT22;68671;50.084;8.794;2023-05-18T11:11:29;16.60;65.10
9847;DHT22;68671;50.084;8.794;2023-05-18T11:13:59;16.70;65.80
9847;DHT22;68671;50.084;8.794;2023-05-18T11:16:32;16.70;65.70
9847;DHT22;68671;50.084;8.794;2023-05-18T11:19:04;16.70;65.20
9847;DHT22;68671;50.084;8.794;2023-05-18T11:21:52;16.70;65.20
9847;DHT22;68671;50.084;8.794;2023-05-18T11:24:27;16.80;65.30
9847;DHT22;68671;50.084;8.794;2023-05-18T11:26:56;16.80;65.10
9847;DHT22;68671;50.084;8.794;2023-05-18T11:29:30;16.70;65.20
9847;DHT22;68671;50.084;8.794;2023-05-18T11:31:58;16.70;64.60
9847;DHT22;68671;50.084;8.794;2023-05-18T11:34:44;16.60;64.70
9847;DHT22;68671;50.084;8.794;2023-05-18T11:37:14;16.60;64.70
9847;DHT22;68671;50.084;8.794;2023-05-18T11:39:42;16.60;64.60
9847;DHT22;68671;50.084;8.794;2023-05-18T11:42:20;16.70;65.10
9847;DHT22;68671;50.084;8.794;2023-05-18T11:44:51;16.70;65.40
9847;DHT22;68671;50.084;8.794;2023-05-18T11:47:22;16.80;65.20
9847;DHT22;68671;50.084;8.794;2023-05-18T11:49:50;16.80;64.90
9847;DHT22;68671;50.084;8.794;2023-05-18T11:52:20;16.80;65.30
9847;DHT22;68671;50.084;8.794;2023-05-18T11:54:49;16.80;66.00
9847;DHT22;68671;50.084;8.794;2023-05-18T11:57:18;16.80;66.20
9847;DHT22;68671;50.084;8.794;2023-05-18T11:59:47;16.80;65.50
9847;DHT22;68671;50.084;8.794;2023-05-18T12:02:19;16.80;65.60
9847;DHT22;68671;50.084;8.794;2023-05-18T12:04:47;16.70;65.70
9847;DHT22;68671;50.084;8.794;2023-05-18T12:07:16;16.70;65.10
9847;DHT22;68671;50.084;8.794;2023-05-18T12:09:45;16.70;65.00
9847;DHT22;68671;50.084;8.794;2023-05-18T12:12:13;16.60;65.30
9847;DHT22;68671;50.084;8.794;2023-05-18T12:14:46;16.60;65.30
9847;DHT22;68671;50.084;8.794;2023-05-18T12:17:14;16.50;65.10
9847;DHT22;68671;50.084;8.794;2023-05-18T12:19:42;16.50;64.50
9847;DHT22;68671;50.084;8.794;2023-05-18T12:22:10;16.40;64.40
9847;DHT22;68671;50.084;8.794;2023-05-18T12:24:38;16.50;64.70
9847;DHT22;68671;50.084;8.794;2023-05-18T12:27:08;16.50;65.10
9847;DHT22;68671;50.084;8.794;2023-05-18T12:29:37;16.60;65.60
9847;DHT22;68671;50.084;8.794;2023-05-18T12:32:06;16.60;65.30
9847;DHT22;68671;50.084;8.794;2023-05-18T12:34:35;16.60;65.00
9847;DHT22;68671;50.084;8.794;2023-05-18T12:37:02;16.70;65.80
9847;DHT22;68671;50.084;8.794;2023-05-18T12:39:29;16.70;66.50
9847;DHT22;68671;50.084;8.794;2023-05-18T12:42:13;16.80;66.80
9847;DHT22;68671;50.084;8.794;2023-05-18T12:44:43;16.80;66.10
9847;DHT22;68671;50.084;8.794;2023-05-18T12:47:11;16.80;65.40
9847;DHT22;68671;50.084;8.794;2023-05-18T12:49:40;16.80;65.60
9847;DHT22;68671;50.084;8.794;2023-05-18T12:52:11;16.80;65.90
9847;DHT22;68671;50.084;8.794;2023-05-18T12:54:52;16.80;66.20
9847;DHT22;68671;50.084;8.794;2023-05-18T12:57:26;16.90;66.40
9847;DHT22;68671;50.084;8.794;2023-05-18T12:59:59;16.90;66.40
9847;DHT22;68671;50.084;8.794;2023-05-18T13:02:28;17.00;66.60
9847;DHT22;68671;50.084;8.794;2023-05-18T13:05:04;17.00;66.40
9847;DHT22;68671;50.084;8.794;2023-05-18T13:07:33;17.10;65.90
9847;DHT22;68671;50.084;8.794;2023-05-18T13:10:03;17.10;66.30
9847;DHT22;68671;50.084;8.794;2023-05-18T13:12:41;17.10;66.40
9847;DHT22;68671;50.084;8.794;2023-05-18T13:15:12;17.20;67.10
9847;DHT22;68671;50.084;8.794;2023-05-18T13:17:54;17.20;67.10
9847;DHT22;68671;50.084;8.794;2023-05-18T13:20:22;17.20;66.70
9847;DHT22;68671;50.084;8.794;2023-05-18T13:22:49;17.30;66.80
9847;DHT22;68671;50.084;8.794;2023-05-18T13:25:17;17.20;66.50
9847;DHT22;68671;50.084;8.794;2023-05-18T13:27:45;17.20;66.80
9847;DHT22;68671;50.084;8.794;2023-05-18T13:30:14;17.20;66.90
9847;DHT22;68671;50.084;8.794;2023-05-18T13:32:41;17.20;67.00
9847;DHT22;68671;50.084;8.794;2023-05-18T13:35:08;17.20;66.70
9847;DHT22;68671;50.084;8.794;2023-05-18T13:37:36;17.20;66.90
9847;DHT22;68671;50.084;8.794;2023-05-18T13:40:07;17.20;67.10
9847;DHT22;68671;50.084;8.794;2023-05-18T13:42:34;17.30;67.30
9847;DHT22;68671;50.084;8.794;2023-05-18T13:45:04;17.30;67.10
9847;DHT22;68671;50.084;8.794;2023-05-18T13:47:32;17.30;66.70
9847;DHT22;68671;50.084;8.794;2023-05-18T13:49:59;17.40;66.40
9847;DHT22;68671;50.084;8.794;2023-05-18T13:52:26;17.30;65.80
9847;DHT22;68671;50.084;8.794;2023-05-18T13:54:53;17.40;66.40
9847;DHT22;68671;50.084;8.794;2023-05-18T13:57:20;17.40;66.80
9847;DHT22;68671;50.084;8.794;2023-05-18T13:59:48;17.30;66.40
9847;DHT22;68671;50.084;8.794;2023-05-18T14:02:17;17.30;66.10
9847;DHT22;68671;50.084;8.794;2023-05-18T14:04:44;17.30;66.00
9847;DHT22;68671;50.084;8.794;2023-05-18T14:07:11;17.30;66.40
9847;DHT22;68671;50.084;8.794;2023-05-18T14:09:37;17.30;66.90
9847;DHT22;68671;50.084;8.794;2023-05-18T14:12:05;17.30;67.00
9847;DHT22;68671;50.084;8.794;2023-05-18T14:14:34;17.40;67.20
9847;DHT22;68671;50.084;8.794;2023-05-18T14:17:02;17.40;66.90
9847;DHT22;68671;50.084;8.794;2023-05-18T14:19:30;17.40;67.00
9847;DHT22;68671;50.084;8.794;2023-05-18T14:21:57;17.40;67.00
9847;DHT22;68671;50.084;8.794;2023-05-18T14:24:24;17.40;67.00
9847;DHT22;68671;50.084;8.794;2023-05-18T14:26:53;17.40;67.20
9847;DHT22;68671;50.084;8.794;2023-05-18T14:29:23;17.40;67.60
9847;DHT22;68671;50.084;8.794;2023-05-18T14:31:52;17.50;68.00
9847;DHT22;68671;50.084;8.794;2023-05-18T14:34:28;17.50;67.40
9847;DHT22;68671;50.084;8.794;2023-05-18T14:37:20;17.50;67.30
9847;DHT22;68671;50.084;8.794;2023-05-18T14:39:51;17.60;67.30
9847;DHT22;68671;50.084;8.794;2023-05-18T14:42:18;17.60;67.20
9847;DHT22;68671;50.084;8.794;2023-05-18T14:44:45;17.50;66.80
9847;DHT22;68671;50.084;8.794;2023-05-18T14:47:14;17.60;66.80
9847;DHT22;68671;50.084;8.794;2023-05-18T14:49:43;17.50;66.70
9847;DHT22;68671;50.084;8.794;2023-05-18T14:52:32;17.50;67.00
9847;DHT22;68671;50.084;8.794;2023-05-18T14:55:16;17.50;67.20
9847;DHT22;68671;50.084;8.794;2023-05-18T14:58:01;17.60;67.40
9847;DHT22;68671;50.084;8.794;2023-05-18T15:00:45;17.60;67.60
9847;DHT22;68671;50.084;8.794;2023-05-18T15:03:15;17.60;67.50
9847;DHT22;68671;50.084;8.794;2023-05-18T15:05:42;17.60;67.30
9847;DHT22;68671;50.084;8.794;2023-05-18T15:08:13;17.60;67.40
9847;DHT22;68671;50.084;8.794;2023-05-18T15:10:40;17.60;67.20
9847;DHT22;68671;50.084;8.794;2023-05-18T15:13:07;17.60;67.40
9847;DHT22;68671;50.084;8.794;2023-05-18T15:15:34;17.50;67.40
9847;DHT22;68671;50.084;8.794;2023-05-18T15:18:01;17.60;67.80
9847;DHT22;68671;50.084;8.794;2023-05-18T15:20:28;17.70;68.20
9847;DHT22;68671;50.084;8.794;2023-05-18T15:22:55;17.70;68.50
9847;DHT22;68671;50.084;8.794;2023-05-18T15:25:23;17.80;68.30
9847;DHT22;68671;50.084;8.794;2023-05-18T15:27:50;17.80;67.80
9847;DHT22;68671;50.084;8.794;2023-05-18T15:30:18;17.80;67.30
9847;DHT22;68671;50.084;8.794;2023-05-18T15:32:45;17.80;67.30
9847;DHT22;68671;50.084;8.794;2023-05-18T15:35:12;17.70;67.60
9847;DHT22;68671;50.084;8.794;2023-05-18T15:37:40;17.80;67.30
9847;DHT22;68671;50.084;8.794;2023-05-18T15:40:08;17.70;67.00
9847;DHT22;68671;50.084;8.794;2023-05-18T15:42:36;17.70;67.10
9847;DHT22;68671;50.084;8.794;2023-05-18T15:45:04;17.70;67.40
9847;DHT22;68671;50.084;8.794;2023-05-18T15:47:31;17.70;67.60
9847;DHT22;68671;50.084;8.794;2023-05-18T15:49:58;17.70;67.80
9847;DHT22;68671;50.084;8.794;2023-05-18T15:52:25;17.70;67.70
9847;DHT22;68671;50.084;8.794;2023-05-18T15:54:52;17.70;67.40
9847;DHT22;68671;50.084;8.794;2023-05-18T15:57:19;17.80;67.50